createdAt,value
2023-03-24T00:03:56.881Z,350.00
2023-03-24T00:08:01.685Z,355.00
2023-03-24T00:11:57.915Z,357.00
2023-03-24T00:15:56.934Z,355.00
2023-03-24T00:19:56.823Z,356.00
2023-03-24T00:23:56.824Z,361.00
2023-03-24T00:27:56.918Z,359.00
2023-03-24T00:31:57.001Z,352.00
2023-03-24T00:35:57.074Z,362.00
2023-03-24T00:39:57.202Z,364.00
2023-03-24T00:43:57.320Z,362.00
2023-03-24T00:47:57.484Z,366.00
2023-03-24T00:51:57.562Z,360.00
2023-03-24T00:55:57.656Z,362.00
2023-03-24T00:59:57.745Z,369.00
2023-03-24T01:03:57.901Z,354.00
2023-03-24T01:07:58.072Z,362.00
2023-03-24T01:11:58.183Z,361.00
2023-03-24T01:15:58.281Z,361.00
2023-03-24T01:19:58.362Z,351.00
2023-03-24T01:23:58.542Z,380.00
2023-03-24T01:27:58.689Z,370.00
2023-03-24T01:31:58.854Z,363.00
2023-03-24T01:35:58.899Z,367.00
2023-03-24T01:39:58.986Z,386.00
2023-03-24T01:43:59.094Z,370.00
2023-03-24T01:47:59.241Z,363.00
2023-03-24T01:51:59.349Z,373.00
2023-03-24T01:55:59.450Z,373.00
2023-03-24T01:59:59.539Z,373.00
2023-03-24T02:03:59.683Z,380.00
2023-03-24T02:07:59.757Z,378.00
2023-03-24T02:11:59.910Z,372.00
2023-03-24T02:16:00.053Z,365.00
2023-03-24T02:20:00.314Z,369.00
2023-03-24T02:24:00.204Z,372.00
2023-03-24T02:28:00.258Z,375.00
2023-03-24T02:32:00.407Z,375.00
2023-03-24T02:36:00.537Z,376.00
2023-03-24T02:40:00.604Z,390.00
2023-03-24T02:44:00.701Z,380.00
2023-03-24T02:48:00.851Z,371.00
2023-03-24T02:52:00.923Z,368.00
2023-03-24T02:56:01.013Z,370.00
2023-03-24T03:00:01.095Z,368.00
2023-03-24T03:04:01.291Z,366.00
2023-03-24T03:08:01.365Z,379.00
2023-03-24T03:12:01.440Z,380.00
2023-03-24T03:16:01.623Z,368.00
2023-03-24T03:20:01.676Z,370.00
2023-03-24T03:24:01.781Z,368.00
2023-03-24T03:28:01.904Z,386.00
2023-03-24T03:32:01.984Z,359.00
2023-03-24T03:36:02.162Z,372.00
2023-03-24T03:40:02.258Z,367.00
2023-03-24T03:44:02.433Z,366.00
2023-03-24T03:48:02.541Z,378.00
2023-03-24T03:52:02.610Z,376.00
2023-03-24T03:56:02.652Z,377.00
2023-03-24T04:00:02.796Z,380.00
2023-03-24T04:04:02.907Z,381.00
2023-03-24T04:08:02.970Z,356.00
2023-03-24T04:12:03.075Z,375.00
2023-03-24T04:16:03.153Z,365.00
2023-03-24T04:20:03.251Z,374.00
2023-03-24T04:24:03.416Z,373.00
2023-03-24T04:28:03.489Z,362.00
2023-03-24T04:32:03.604Z,367.00
2023-03-24T04:36:03.715Z,368.00
2023-03-24T04:40:03.790Z,353.00
2023-03-24T04:44:03.901Z,362.00
2023-03-24T04:48:04.040Z,367.00
2023-03-24T04:52:04.054Z,363.00
2023-03-24T04:56:07.093Z,377.00
2023-03-24T05:00:04.146Z,367.00
2023-03-24T05:04:04.153Z,377.00
2023-03-24T05:08:04.070Z,373.00
2023-03-24T05:12:04.029Z,376.00
2023-03-24T05:16:04.014Z,391.00
2023-03-24T05:20:03.932Z,371.00
2023-03-24T05:24:03.911Z,365.00
2023-03-24T05:28:03.873Z,383.00
2023-03-24T05:32:03.808Z,372.00
2023-03-24T05:36:03.798Z,373.00
2023-03-24T05:40:03.748Z,362.00
2023-03-24T05:44:03.720Z,373.00
2023-03-24T05:48:03.712Z,374.00
2023-03-24T05:52:03.674Z,375.00
2023-03-24T05:56:03.605Z,357.00
2023-03-24T06:00:03.582Z,370.00
2023-03-24T06:04:03.642Z,366.00
2023-03-24T06:08:03.675Z,343.00
2023-03-24T06:12:03.774Z,365.00
2023-03-24T06:16:04.113Z,369.00
2023-03-24T06:20:03.966Z,364.00
2023-03-24T06:24:04.094Z,359.00
2023-03-24T06:28:04.356Z,368.00
2023-03-24T06:32:04.644Z,377.00
2023-03-24T06:36:04.582Z,376.00
2023-03-24T06:40:04.655Z,367.00
2023-03-24T06:44:04.787Z,355.00
2023-03-24T06:48:04.996Z,372.00
2023-03-24T06:52:04.966Z,372.00
2023-03-24T06:56:05.104Z,394.00
2023-03-24T07:00:05.260Z,359.00
2023-03-24T07:04:05.374Z,371.00
2023-03-24T07:08:33.964Z,365.00
2023-03-24T07:12:06.481Z,365.00
2023-03-24T07:16:05.557Z,366.00
2023-03-24T07:20:05.559Z,355.00
2023-03-24T07:24:05.502Z,375.00
2023-03-24T07:28:05.577Z,368.00
2023-03-24T07:32:05.672Z,353.00
2023-03-24T07:36:05.830Z,374.00
2023-03-24T07:40:05.931Z,373.00
2023-03-24T07:44:06.053Z,367.00
2023-03-24T07:48:06.150Z,372.00
2023-03-24T07:52:06.339Z,380.00
2023-03-24T07:56:06.316Z,362.00
2023-03-24T08:00:06.463Z,367.00
2023-03-24T08:04:06.835Z,364.00
2023-03-24T08:08:06.743Z,389.00
2023-03-24T08:12:17.335Z,387.00
2023-03-24T08:16:07.831Z,362.00
2023-03-24T08:20:06.751Z,357.00
2023-03-24T08:24:06.700Z,357.00
2023-03-24T08:28:06.825Z,331.00
2023-03-24T08:32:07.164Z,356.00
2023-03-24T08:36:07.030Z,371.00
2023-03-24T08:40:07.067Z,351.00
2023-03-24T08:44:07.348Z,385.00
2023-03-24T08:48:07.372Z,368.00
2023-03-24T08:52:07.361Z,376.00
2023-03-24T08:56:07.473Z,364.00
2023-03-24T09:00:07.646Z,371.00
2023-03-24T09:04:07.736Z,372.00
2023-03-24T09:08:07.880Z,367.00
2023-03-24T09:12:08.000Z,364.00
2023-03-24T09:16:08.111Z,365.00
2023-03-24T09:20:08.245Z,374.00
2023-03-24T09:24:08.321Z,384.00
2023-03-24T09:28:08.470Z,370.00
2023-03-24T09:32:09.043Z,350.00
2023-03-24T09:36:08.652Z,342.00
2023-03-24T09:40:09.190Z,363.00
2023-03-24T09:44:08.858Z,368.00
2023-03-24T09:48:08.997Z,356.00
2023-03-24T09:52:09.086Z,359.00
2023-03-24T09:56:09.181Z,356.00
2023-03-24T10:00:09.330Z,353.00
2023-03-24T10:04:09.522Z,362.00
2023-03-24T10:08:09.573Z,345.00
2023-03-24T10:12:09.686Z,346.00
2023-03-24T10:16:09.840Z,355.00
2023-03-24T10:20:09.990Z,348.00
2023-03-24T10:24:10.117Z,361.00
2023-03-24T10:28:10.205Z,364.00
2023-03-24T10:32:10.748Z,344.00
2023-03-24T10:36:10.468Z,360.00
2023-03-24T10:40:10.586Z,370.00
2023-03-24T10:44:10.712Z,357.00
2023-03-24T10:48:10.877Z,350.00
2023-03-24T10:52:10.868Z,368.00
2023-03-24T10:56:10.999Z,374.00
2023-03-24T11:00:11.134Z,353.00
2023-03-24T11:04:11.292Z,365.00
2023-03-24T11:08:11.264Z,347.00
2023-03-24T11:12:11.380Z,360.00
2023-03-24T11:16:11.516Z,343.00
2023-03-24T11:20:11.587Z,338.00
2023-03-24T11:24:11.747Z,340.00
2023-03-24T11:28:11.860Z,343.00
2023-03-24T11:32:12.010Z,355.00
2023-03-24T11:36:12.464Z,345.00
2023-03-24T11:40:12.306Z,354.00
2023-03-24T11:44:12.451Z,371.00
2023-03-24T11:48:12.621Z,367.00
2023-03-24T11:52:12.701Z,354.00
2023-03-24T11:56:12.767Z,379.00
2023-03-24T12:00:12.889Z,373.00
2023-03-24T12:04:13.056Z,359.00
2023-03-24T12:08:13.145Z,345.00
2023-03-24T12:12:13.246Z,361.00
2023-03-24T12:16:13.431Z,359.00
2023-03-24T12:20:13.748Z,365.00
2023-03-24T12:24:13.632Z,367.00
2023-03-24T12:28:13.834Z,363.00
2023-03-24T12:32:13.929Z,359.00
2023-03-24T12:36:14.106Z,366.00
2023-03-24T12:40:14.208Z,363.00
2023-03-24T12:44:14.333Z,395.00
2023-03-24T12:48:14.431Z,371.00
2023-03-24T12:52:14.596Z,374.00
2023-03-24T12:56:14.637Z,358.00
2023-03-24T13:00:14.821Z,365.00
2023-03-24T13:04:14.937Z,378.00
2023-03-24T13:08:15.064Z,366.00
2023-03-24T13:12:15.238Z,358.00
2023-03-24T13:16:15.361Z,385.00
2023-03-24T13:20:15.445Z,376.00
2023-03-24T13:24:15.645Z,379.00
2023-03-24T13:28:15.674Z,386.00
2023-03-24T13:32:15.812Z,341.00
2023-03-24T13:36:15.976Z,370.00
2023-03-24T13:40:16.061Z,383.00
2023-03-24T13:44:16.200Z,407.00
2023-03-24T13:48:16.325Z,393.00
2023-03-24T13:52:16.366Z,395.00
2023-03-24T13:56:16.494Z,362.00
2023-03-24T14:00:16.632Z,390.00
2023-03-24T14:04:16.760Z,364.00
2023-03-24T14:08:16.847Z,371.00
2023-03-24T14:12:16.957Z,376.00
2023-03-24T14:16:17.153Z,384.00
2023-03-24T14:20:17.213Z,356.00
2023-03-24T14:24:17.276Z,392.00
2023-03-24T14:28:17.394Z,382.00
2023-03-24T14:32:20.540Z,419.00
2023-03-24T14:36:17.507Z,371.00
2023-03-24T14:40:25.114Z,363.00
2023-03-24T14:44:18.450Z,355.00
2023-03-24T14:48:17.428Z,337.00
2023-03-24T14:52:17.773Z,370.00
2023-03-24T14:56:17.413Z,361.00
2023-03-24T15:00:17.575Z,336.00
2023-03-24T15:04:17.618Z,353.00
2023-03-24T15:08:17.712Z,363.00
2023-03-24T15:12:17.822Z,343.00
2023-03-24T15:16:17.971Z,353.00
2023-03-24T15:20:18.779Z,339.00
2023-03-24T15:24:18.224Z,355.00
2023-03-24T15:28:18.355Z,374.00
2023-03-24T15:32:18.487Z,351.00
2023-03-24T15:36:18.623Z,339.00
2023-03-24T15:40:18.705Z,356.00
2023-03-24T15:44:18.794Z,366.00
2023-03-24T15:48:18.903Z,352.00
2023-03-24T15:52:19.075Z,356.00
2023-03-24T15:56:19.174Z,369.00
2023-03-24T16:00:19.279Z,348.00
2023-03-24T16:04:19.490Z,345.00
2023-03-24T16:08:19.614Z,320.00
2023-03-24T16:12:19.685Z,340.00
2023-03-24T16:16:19.916Z,352.00
2023-03-24T16:20:19.932Z,350.00
2023-03-24T16:24:20.096Z,352.00
2023-03-24T16:28:20.177Z,350.00
2023-03-24T16:32:20.298Z,348.00
2023-03-24T16:36:20.458Z,346.00
2023-03-24T16:40:20.661Z,358.00
2023-03-24T16:44:20.716Z,349.00
2023-03-24T16:48:20.858Z,345.00
2023-03-24T16:52:20.946Z,362.00
2023-03-24T16:56:21.068Z,356.00
2023-03-24T17:00:21.243Z,345.00
2023-03-24T17:04:21.424Z,364.00
2023-03-24T17:08:21.564Z,350.00
2023-03-24T17:12:21.630Z,390.00
2023-03-24T17:16:21.773Z,353.00
2023-03-24T17:20:21.834Z,366.00
2023-03-24T17:24:21.934Z,329.00
2023-03-24T17:28:22.092Z,332.00
2023-03-24T17:32:22.455Z,335.00
2023-03-24T17:36:22.342Z,332.00
2023-03-24T17:40:22.411Z,340.00
2023-03-24T17:44:22.501Z,340.00
2023-03-24T17:48:22.608Z,335.00
2023-03-24T17:52:22.746Z,337.00
2023-03-24T17:56:22.813Z,337.00
2023-03-24T18:00:22.941Z,337.00
2023-03-24T18:04:23.061Z,341.00
2023-03-24T18:08:23.209Z,341.00
2023-03-24T18:12:23.285Z,336.00
2023-03-24T18:16:23.424Z,340.00
2023-03-24T18:20:23.557Z,346.00
2023-03-24T18:24:23.619Z,345.00
2023-03-24T18:28:23.702Z,348.00
2023-03-24T18:32:23.910Z,348.00
2023-03-24T18:36:24.006Z,344.00
2023-03-24T18:40:24.126Z,350.00
2023-03-24T18:44:24.348Z,348.00
2023-03-24T18:48:24.432Z,343.00
2023-03-24T18:52:24.586Z,343.00
2023-03-24T18:56:24.726Z,348.00
2023-03-24T19:00:24.904Z,364.00
2023-03-24T19:04:25.039Z,350.00
2023-03-24T19:08:25.177Z,357.00
2023-03-24T19:12:25.277Z,359.00
2023-03-24T19:16:25.373Z,363.00
2023-03-24T19:20:25.398Z,361.00
2023-03-24T19:24:25.574Z,346.00
2023-03-24T19:28:25.661Z,352.00
2023-03-24T19:32:25.756Z,337.00
2023-03-24T19:36:25.906Z,348.00
2023-03-24T19:40:26.062Z,347.00
2023-03-24T19:44:26.136Z,347.00
2023-03-24T19:48:26.241Z,336.00
2023-03-24T19:52:26.368Z,349.00
2023-03-24T19:56:26.654Z,351.00
2023-03-24T20:00:26.642Z,349.00
2023-03-24T20:04:26.768Z,348.00
2023-03-24T20:08:26.898Z,341.00
2023-03-24T20:12:27.049Z,337.00
2023-03-24T20:16:27.231Z,346.00
2023-03-24T20:20:27.247Z,350.00
2023-03-24T20:24:27.495Z,352.00
2023-03-24T20:28:27.605Z,352.00
2023-03-24T20:32:27.714Z,356.00
2023-03-24T20:36:27.788Z,365.00
2023-03-24T20:40:27.893Z,346.00
2023-03-24T20:44:27.991Z,350.00
2023-03-24T20:48:28.118Z,353.00
2023-03-24T20:52:28.172Z,353.00
2023-03-24T20:56:28.357Z,348.00
2023-03-24T21:00:29.737Z,351.00
2023-03-24T21:04:28.398Z,352.00
2023-03-24T21:08:28.518Z,363.00
2023-03-24T21:12:28.641Z,356.00
2023-03-24T21:16:28.877Z,351.00
2023-03-24T21:20:28.920Z,348.00
2023-03-24T21:24:29.186Z,353.00
2023-03-24T21:28:29.330Z,340.00
2023-03-24T21:32:29.501Z,351.00
2023-03-24T21:36:29.563Z,346.00
2023-03-24T21:40:29.657Z,344.00
2023-03-24T21:44:29.682Z,348.00
2023-03-24T21:48:29.779Z,340.00
2023-03-24T21:52:29.850Z,341.00
2023-03-24T21:56:29.952Z,343.00
2023-03-24T22:00:30.061Z,339.00
2023-03-24T22:04:30.121Z,352.00
2023-03-24T22:08:30.212Z,341.00
2023-03-24T22:12:30.373Z,341.00
2023-03-24T22:16:30.596Z,344.00
2023-03-24T22:20:30.678Z,343.00
2023-03-24T22:24:30.849Z,345.00
2023-03-24T22:28:31.011Z,347.00
2023-03-24T22:32:31.294Z,346.00
2023-03-24T22:36:31.328Z,350.00
2023-03-24T22:40:31.396Z,349.00
2023-03-24T22:44:31.570Z,352.00
2023-03-24T22:48:31.728Z,343.00
2023-03-24T22:52:31.880Z,349.00
2023-03-24T22:56:32.121Z,351.00
2023-03-24T23:00:32.129Z,349.00
2023-03-24T23:04:32.187Z,349.00
2023-03-24T23:08:32.389Z,343.00
2023-03-24T23:12:32.550Z,346.00
2023-03-24T23:16:32.699Z,339.00
2023-03-24T23:20:32.816Z,343.00
2023-03-24T23:24:32.900Z,347.00
2023-03-24T23:28:32.996Z,345.00
2023-03-24T23:32:33.195Z,358.00
2023-03-24T23:36:33.253Z,356.00
2023-03-24T23:40:33.435Z,352.00
2023-03-24T23:44:33.654Z,347.00
2023-03-24T23:48:33.788Z,354.00
2023-03-24T23:52:33.952Z,345.00
2023-03-24T23:56:34.138Z,349.00
